Cedar Falls, Washington
Current Conditions -  °F | °C
As of 7:53 AM on Saturday 22 Nov 2014 (Local Time) from KRNT Reporting Station
Overcast Overcast  
Wind Chill: 41°   Ceiling: 8500
Heat Index: 46°   Visibility: 10mi
Dew Point: 41°   Wind: 10mph
Humidity: 83%   Direction: 160°SSE
Pressure: 29.7"   Gusts: NA
Location:  47.4594°N, 121.612°W
Report Text: KRNT 221553Z 16009KT 10SM FEW017 SCT027 OVC085 08/05 A2970 RMK AO2 RAE01 SLP062 P0000 T00780050
Loading
Personal Weather Stations






























Interactive Weather Map New forecast layout! Learn more

10-Day Weather Forecast

Advertisements
Track Severe Weather on mobile